createdAt,value
2017-01-03T00:01:03.665Z,0
2017-01-03T00:02:14.083Z,0
2017-01-03T00:03:24.357Z,0
2017-01-03T00:04:34.620Z,0
2017-01-03T00:05:44.121Z,0
2017-01-03T00:06:53.975Z,0
2017-01-03T00:08:03.808Z,0
2017-01-03T00:09:14.061Z,0
2017-01-03T00:10:23.580Z,0
2017-01-03T00:11:33.935Z,0
2017-01-03T00:12:43.842Z,0
2017-01-03T00:13:53.415Z,0
2017-01-03T00:15:03.281Z,0
2017-01-03T00:16:12.741Z,0
2017-01-03T00:17:22.777Z,0
2017-01-03T00:18:33.034Z,0
2017-01-03T00:19:43.385Z,0
2017-01-03T00:20:53.612Z,0
2017-01-03T00:22:03.451Z,0
2017-01-03T00:23:13.378Z,0
2017-01-03T00:24:23.236Z,0
2017-01-03T00:25:33.120Z,0
2017-01-03T00:26:42.970Z,0
2017-01-03T00:27:52.829Z,0
2017-01-03T00:29:03.109Z,0
2017-01-03T00:30:13.352Z,0
2017-01-03T00:31:23.239Z,0
2017-01-03T00:32:33.230Z,0
2017-01-03T00:33:43.117Z,0
2017-01-03T00:34:52.996Z,0
2017-01-03T00:36:03.361Z,0
2017-01-03T00:37:13.713Z,0
2017-01-03T00:38:23.679Z,0
2017-01-03T00:39:33.504Z,0
2017-01-03T00:40:43.891Z,0
2017-01-03T00:41:54.143Z,0
2017-01-03T00:43:03.976Z,0
2017-01-03T00:44:13.881Z,0
2017-01-03T00:45:23.319Z,0
2017-01-03T00:46:32.740Z,0
2017-01-03T00:47:42.621Z,0
2017-01-03T00:48:52.884Z,0
2017-01-03T00:50:03.164Z,0
2017-01-03T00:51:13.404Z,0
2017-01-03T00:52:23.685Z,0
2017-01-03T00:53:33.214Z,0
2017-01-03T00:54:43.039Z,0
2017-01-03T00:55:53.299Z,0
2017-01-03T00:57:03.224Z,0
2017-01-03T00:58:13.493Z,0
2017-01-03T00:59:23.367Z,0
2017-01-03T01:00:33.632Z,0
2017-01-03T01:01:43.515Z,0
2017-01-03T01:02:53.805Z,0
2017-01-03T01:04:04.063Z,0
2017-01-03T01:05:14.312Z,0
2017-01-03T01:06:24.615Z,0
2017-01-03T01:07:34.985Z,0
2017-01-03T01:08:44.941Z,0
2017-01-03T01:09:54.948Z,0
2017-01-03T01:11:04.768Z,0
2017-01-03T01:12:15.039Z,0
2017-01-03T01:13:24.884Z,0
2017-01-03T01:14:35.135Z,0
2017-01-03T01:15:45.367Z,0
2017-01-03T01:16:54.804Z,0
2017-01-03T01:18:04.626Z,0
2017-01-03T01:19:14.068Z,0
2017-01-03T01:20:24.370Z,0
2017-01-03T01:21:34.212Z,0
2017-01-03T01:22:44.625Z,0
2017-01-03T01:23:54.916Z,0
2017-01-03T01:25:05.178Z,0
2017-01-03T01:26:14.741Z,0
2017-01-03T01:27:24.599Z,0
2017-01-03T01:28:34.853Z,0
2017-01-03T01:29:45.090Z,0
2017-01-03T01:30:55.361Z,0
2017-01-03T01:32:05.220Z,0
2017-01-03T01:33:15.056Z,0
2017-01-03T01:34:24.909Z,0
2017-01-03T01:35:35.146Z,0
2017-01-03T01:37:17.146Z,0
2017-01-03T01:38:27.531Z,0
2017-01-03T01:39:37.989Z,0
2017-01-03T01:40:48.465Z,0
2017-01-03T01:41:58.309Z,0
2017-01-03T01:43:08.144Z,0
2017-01-03T01:44:18.383Z,0
2017-01-03T01:45:28.297Z,0
2017-01-03T01:46:38.534Z,0
2017-01-03T01:47:48.373Z,0
2017-01-03T01:48:58.663Z,0
2017-01-03T01:50:08.512Z,0
2017-01-03T01:51:18.918Z,0
2017-01-03T01:52:29.146Z,0
2017-01-03T01:53:39.403Z,0
2017-01-03T01:54:49.669Z,0
2017-01-03T01:55:59.520Z,0
2017-01-03T01:57:09.404Z,0
2017-01-03T01:58:19.864Z,0
2017-01-03T01:59:29.774Z,0
2017-01-03T02:00:40.012Z,0
2017-01-03T02:01:50.269Z,0
2017-01-03T02:02:59.698Z,0
2017-01-03T02:04:09.151Z,0
2017-01-03T02:05:19.449Z,0
2017-01-03T02:06:29.721Z,0
2017-01-03T02:07:40.008Z,0
2017-01-03T02:08:50.873Z,0
2017-01-03T02:10:01.207Z,0
2017-01-03T02:11:10.709Z,0
2017-01-03T02:12:20.577Z,0
2017-01-03T02:13:30.070Z,0
2017-01-03T02:14:40.299Z,0
2017-01-03T02:15:50.784Z,0
2017-01-03T02:17:00.673Z,0
2017-01-03T02:18:10.136Z,0
2017-01-03T02:19:20.507Z,0
2017-01-03T02:20:30.179Z,0
2017-01-03T02:21:40.441Z,0
2017-01-03T02:22:49.964Z,0
2017-01-03T02:24:00.209Z,0
2017-01-03T02:25:10.473Z,0
2017-01-03T02:26:20.806Z,0
2017-01-03T02:27:31.093Z,0
2017-01-03T02:28:41.418Z,0
2017-01-03T02:29:51.794Z,0
2017-01-03T02:31:02.086Z,0
2017-01-03T02:32:12.405Z,0
2017-01-03T02:33:22.755Z,0
2017-01-03T02:34:32.598Z,0
2017-01-03T02:35:42.481Z,0
2017-01-03T02:36:52.823Z,0
2017-01-03T02:38:03.093Z,0
2017-01-03T02:39:12.722Z,0
2017-01-03T02:40:22.251Z,0
2017-01-03T02:41:32.107Z,0
2017-01-03T02:42:42.394Z,0
2017-01-03T02:43:52.626Z,0
2017-01-03T02:45:02.891Z,0
2017-01-03T02:46:12.722Z,0
2017-01-03T02:47:23.080Z,0
2017-01-03T02:48:32.967Z,0
2017-01-03T02:49:43.097Z,0
2017-01-03T02:50:52.999Z,0
2017-01-03T02:52:03.258Z,0
2017-01-03T02:53:13.515Z,0
2017-01-03T02:54:23.496Z,0
2017-01-03T02:55:33.740Z,0
2017-01-03T02:56:44.072Z,0
2017-01-03T02:57:54.372Z,0
2017-01-03T02:59:04.599Z,0
2017-01-03T03:00:13.630Z,0
2017-01-03T03:01:23.864Z,0
2017-01-03T03:02:34.132Z,0
2017-01-03T03:03:44.375Z,0
2017-01-03T03:04:54.616Z,0
2017-01-03T03:06:04.927Z,0
2017-01-03T03:07:13.942Z,0
2017-01-03T03:08:24.178Z,0
2017-01-03T03:09:33.633Z,0
2017-01-03T03:10:43.080Z,0
2017-01-03T03:11:52.913Z,0
2017-01-03T03:13:02.745Z,0
2017-01-03T03:14:12.600Z,0
2017-01-03T03:15:22.913Z,0
2017-01-03T03:16:33.014Z,0
2017-01-03T03:17:43.347Z,0
2017-01-03T03:18:53.273Z,0
2017-01-03T03:20:02.304Z,0
2017-01-03T03:21:12.536Z,0
2017-01-03T03:22:22.479Z,0
2017-01-03T03:23:32.723Z,0
2017-01-03T03:24:42.161Z,0
2017-01-03T03:25:51.713Z,0
2017-01-03T03:27:01.622Z,0
2017-01-03T03:28:11.930Z,0
2017-01-03T03:29:21.794Z,0
2017-01-03T03:30:31.661Z,0
2017-01-03T03:31:41.896Z,0
2017-01-03T03:32:51.344Z,0
2017-01-03T03:34:01.612Z,0
2017-01-03T03:35:11.842Z,0
2017-01-03T03:36:22.120Z,0
2017-01-03T03:37:31.949Z,0
2017-01-03T03:38:41.781Z,0
2017-01-03T03:39:51.667Z,0
2017-01-03T03:41:01.111Z,0
2017-01-03T03:42:10.933Z,0
2017-01-03T03:43:21.161Z,0
2017-01-03T03:44:31.455Z,0
2017-01-03T03:45:40.893Z,0
2017-01-03T03:46:50.775Z,0
2017-01-03T03:48:00.616Z,0
2017-01-03T03:49:10.939Z,0
2017-01-03T03:50:21.178Z,0
2017-01-03T03:51:30.673Z,0
2017-01-03T03:52:40.918Z,0
2017-01-03T03:53:50.911Z,0
2017-01-03T03:55:00.795Z,0
2017-01-03T03:56:11.262Z,0
2017-01-03T03:57:21.518Z,0
2017-01-03T03:58:31.372Z,0
2017-01-03T03:59:41.198Z,0
2017-01-03T04:00:51.081Z,0
2017-01-03T04:02:01.812Z,0
2017-01-03T04:03:12.104Z,0
2017-01-03T04:04:22.368Z,0
2017-01-03T04:05:32.302Z,0
2017-01-03T04:06:42.154Z,0
2017-01-03T04:07:52.011Z,0
2017-01-03T04:09:01.843Z,0
2017-01-03T04:10:10.877Z,0
2017-01-03T04:11:21.113Z,0
2017-01-03T04:12:30.945Z,0
2017-01-03T04:13:41.206Z,0
2017-01-03T04:14:51.627Z,0
2017-01-03T04:16:01.615Z,0
2017-01-03T04:17:11.138Z,0
2017-01-03T04:18:21.105Z,0
2017-01-03T04:19:30.995Z,0
2017-01-03T04:20:40.450Z,0
2017-01-03T04:21:50.682Z,0
2017-01-03T04:23:00.532Z,0
2017-01-03T04:24:10.080Z,0
2017-01-03T04:25:19.568Z,0
2017-01-03T04:26:29.794Z,0
2017-01-03T04:27:39.684Z,0
2017-01-03T04:28:49.971Z,0
2017-01-03T04:30:00.209Z,0
2017-01-03T04:31:10.597Z,0
2017-01-03T04:32:20.877Z,0
2017-01-03T04:33:30.737Z,0
2017-01-03T04:34:40.659Z,0
2017-01-03T04:35:50.916Z,0
2017-01-03T04:37:01.150Z,0
2017-01-03T04:38:11.390Z,0
2017-01-03T04:39:21.628Z,0
2017-01-03T04:40:31.480Z,0
2017-01-03T04:41:41.310Z,0
2017-01-03T04:42:51.158Z,0
2017-01-03T04:44:00.586Z,0
2017-01-03T04:45:10.510Z,0
2017-01-03T04:46:19.977Z,0
2017-01-03T04:47:30.418Z,0
2017-01-03T04:48:40.931Z,0
2017-01-03T04:49:50.838Z,0
2017-01-03T04:51:00.733Z,0
2017-01-03T04:52:10.162Z,0
2017-01-03T04:53:19.588Z,0
2017-01-03T04:54:29.833Z,0
2017-01-03T04:55:39.695Z,0
2017-01-03T04:56:49.930Z,0
2017-01-03T04:57:59.794Z,0
2017-01-03T04:59:09.819Z,0
2017-01-03T05:00:20.169Z,0
2017-01-03T05:01:30.483Z,0
2017-01-03T05:02:40.754Z,0
2017-01-03T05:03:50.626Z,0
2017-01-03T05:05:00.861Z,0
2017-01-03T05:06:10.687Z,0
2017-01-03T05:07:20.126Z,0
2017-01-03T05:08:30.030Z,0
2017-01-03T05:09:39.861Z,0
2017-01-03T05:10:50.125Z,0
2017-01-03T05:12:00.420Z,0
2017-01-03T05:13:10.368Z,0
2017-01-03T05:14:20.246Z,0
2017-01-03T05:15:30.584Z,0
2017-01-03T05:16:40.892Z,0
2017-01-03T05:17:51.132Z,0
2017-01-03T05:19:01.043Z,0
2017-01-03T05:20:11.448Z,0
2017-01-03T05:21:21.679Z,0
2017-01-03T05:22:31.510Z,0
2017-01-03T05:23:41.375Z,0
2017-01-03T05:24:51.618Z,0
2017-01-03T05:26:01.499Z,0
2017-01-03T05:27:11.351Z,0
2017-01-03T05:28:20.823Z,0
2017-01-03T05:29:30.769Z,0
2017-01-03T05:30:41.061Z,0
2017-01-03T05:31:50.901Z,0
2017-01-03T05:33:00.737Z,0
2017-01-03T05:34:10.570Z,0
2017-01-03T05:35:20.436Z,0
2017-01-03T05:36:30.267Z,0
2017-01-03T05:37:39.859Z,0
2017-01-03T05:38:50.183Z,0
2017-01-03T05:40:00.055Z,0
2017-01-03T05:41:09.586Z,0
2017-01-03T05:42:18.670Z,0
2017-01-03T05:43:28.532Z,0
2017-01-03T05:44:38.842Z,0
2017-01-03T05:45:48.752Z,0
2017-01-03T05:46:58.592Z,0
2017-01-03T05:48:08.636Z,0
2017-01-03T05:49:18.913Z,0
2017-01-03T05:50:28.914Z,0
2017-01-03T05:51:39.191Z,0
2017-01-03T05:52:49.062Z,0
2017-01-03T05:53:58.953Z,0
2017-01-03T05:55:08.400Z,0
2017-01-03T05:56:18.671Z,0
2017-01-03T05:57:28.923Z,0
2017-01-03T05:58:39.246Z,0
2017-01-03T05:59:49.555Z,0
2017-01-03T06:00:59.390Z,0
2017-01-03T06:02:09.232Z,0
2017-01-03T06:03:18.891Z,0
2017-01-03T06:04:28.325Z,0
2017-01-03T06:05:38.167Z,0
2017-01-03T06:06:47.660Z,0
2017-01-03T06:07:57.902Z,0
2017-01-03T06:09:08.328Z,0
2017-01-03T06:10:18.189Z,0
2017-01-03T06:11:28.182Z,0
2017-01-03T06:12:37.605Z,0
2017-01-03T06:13:46.637Z,0
2017-01-03T06:14:56.945Z,0
2017-01-03T06:16:06.804Z,0
2017-01-03T06:17:17.066Z,0
2017-01-03T06:18:27.352Z,0
2017-01-03T06:19:37.616Z,0
2017-01-03T06:20:47.858Z,0
2017-01-03T06:21:57.671Z,0
2017-01-03T06:23:07.945Z,0
2017-01-03T06:24:17.799Z,0
2017-01-03T06:25:28.102Z,0
2017-01-03T06:26:38.008Z,0
2017-01-03T06:27:48.242Z,0
2017-01-03T06:28:58.661Z,0
2017-01-03T06:30:08.520Z,0
2017-01-03T06:31:18.360Z,0
2017-01-03T06:32:28.663Z,0
2017-01-03T06:33:38.918Z,0
2017-01-03T06:34:48.749Z,0
2017-01-03T06:35:58.626Z,0
2017-01-03T06:37:08.501Z,0
2017-01-03T06:38:18.738Z,0
2017-01-03T06:39:27.798Z,0
2017-01-03T06:40:38.045Z,0
2017-01-03T06:41:47.898Z,0
2017-01-03T06:42:58.217Z,0
2017-01-03T06:44:08.561Z,0
2017-01-03T06:45:18.407Z,0
2017-01-03T06:46:28.258Z,4
2017-01-03T06:47:38.145Z,4
2017-01-03T06:48:47.965Z,0
2017-01-03T06:49:57.826Z,0
2017-01-03T06:51:07.270Z,4
2017-01-03T06:52:17.517Z,4
2017-01-03T06:53:26.930Z,8
2017-01-03T06:54:36.400Z,8
2017-01-03T06:55:46.672Z,8
2017-01-03T06:56:57.119Z,8
2017-01-03T06:58:06.996Z,12
2017-01-03T06:59:17.290Z,16
2017-01-03T07:00:27.593Z,16
2017-01-03T07:01:37.522Z,20
2017-01-03T07:02:47.864Z,20
2017-01-03T07:03:57.279Z,20
2017-01-03T07:05:07.112Z,24
2017-01-03T07:06:17.357Z,24
2017-01-03T07:07:27.618Z,32
2017-01-03T07:08:37.871Z,36
2017-01-03T07:09:48.133Z,40
2017-01-03T07:10:58.357Z,36
2017-01-03T07:12:08.648Z,44
2017-01-03T07:13:18.977Z,52
2017-01-03T07:14:28.796Z,60
2017-01-03T07:15:39.076Z,72
2017-01-03T07:16:48.971Z,76
2017-01-03T07:17:58.798Z,100
2017-01-03T07:19:08.668Z,132
2017-01-03T07:20:18.579Z,152
2017-01-03T07:21:28.019Z,164
2017-01-03T07:22:38.291Z,164
2017-01-03T07:23:48.128Z,180
2017-01-03T07:24:57.966Z,176
2017-01-03T07:26:08.237Z,196
2017-01-03T07:27:18.518Z,224
2017-01-03T07:28:28.900Z,232
2017-01-03T07:29:39.142Z,244
2017-01-03T07:30:49.413Z,252
2017-01-03T07:31:59.792Z,308
2017-01-03T07:33:10.032Z,352
2017-01-03T07:34:20.299Z,388
2017-01-03T07:35:30.318Z,428
2017-01-03T07:36:40.186Z,472
2017-01-03T07:37:50.030Z,448
2017-01-03T07:39:00.252Z,488
2017-01-03T07:40:10.517Z,532
2017-01-03T07:41:20.357Z,540
2017-01-03T07:42:30.596Z,612
2017-01-03T07:43:40.870Z,648
2017-01-03T07:44:50.736Z,664
2017-01-03T07:46:00.992Z,644
2017-01-03T07:47:11.226Z,656
2017-01-03T07:48:21.481Z,624
2017-01-03T07:49:31.329Z,604
2017-01-03T07:50:41.597Z,612
2017-01-03T07:51:51.486Z,576
2017-01-03T07:53:01.318Z,552
2017-01-03T07:54:11.561Z,568
2017-01-03T07:55:21.428Z,676
2017-01-03T07:56:31.663Z,808
2017-01-03T07:57:42.024Z,780
2017-01-03T07:58:51.860Z,880
2017-01-03T08:00:02.177Z,924
2017-01-03T08:01:12.495Z,944
2017-01-03T08:02:22.397Z,1024
2017-01-03T08:03:32.703Z,880
2017-01-03T08:04:42.945Z,880
2017-01-03T08:05:53.199Z,1016
2017-01-03T08:07:03.059Z,1240
2017-01-03T08:08:13.371Z,984
2017-01-03T08:09:22.824Z,1024
2017-01-03T08:10:33.145Z,1088
2017-01-03T08:11:43.488Z,1036
2017-01-03T08:12:53.754Z,1100
2017-01-03T08:14:03.587Z,1216
2017-01-03T08:15:13.478Z,1400
2017-01-03T08:16:23.725Z,1544
2017-01-03T08:17:33.999Z,1340
2017-01-03T08:18:43.821Z,1212
2017-01-03T08:19:54.045Z,1288
2017-01-03T08:21:04.347Z,1440
2017-01-03T08:22:14.619Z,1348
2017-01-03T08:23:24.878Z,1380
2017-01-03T08:24:35.146Z,1268
2017-01-03T08:25:45.400Z,1280
2017-01-03T08:26:55.272Z,1508
2017-01-03T08:28:05.610Z,1572
2017-01-03T08:29:15.863Z,1824
2017-01-03T08:30:26.281Z,1980
2017-01-03T08:31:36.116Z,1836
2017-01-03T08:32:46.385Z,1884
2017-01-03T08:33:56.641Z,2048
2017-01-03T08:35:06.897Z,2052
2017-01-03T08:36:16.755Z,1988
2017-01-03T08:37:27.111Z,1924
2017-01-03T08:38:36.995Z,2060
2017-01-03T08:39:47.295Z,2108
2017-01-03T08:40:57.584Z,2116
2017-01-03T08:42:07.812Z,2160
2017-01-03T08:43:18.094Z,1868
2017-01-03T08:44:28.463Z,1868
2017-01-03T08:45:38.698Z,2224
2017-01-03T08:46:48.163Z,2264
2017-01-03T08:47:58.399Z,2416
2017-01-03T08:49:07.848Z,2388
2017-01-03T08:50:17.761Z,2544
2017-01-03T08:51:28.105Z,2720
2017-01-03T08:52:38.327Z,2784
2017-01-03T08:53:48.628Z,2804
2017-01-03T08:54:58.898Z,2816
2017-01-03T08:56:08.782Z,2916
2017-01-03T08:57:19.089Z,2960
2017-01-03T08:58:29.344Z,2976
2017-01-03T08:59:39.698Z,2900
2017-01-03T09:00:49.951Z,2792
2017-01-03T09:01:59.791Z,3048
2017-01-03T09:03:10.045Z,3364
2017-01-03T09:04:20.303Z,3616
2017-01-03T09:05:30.559Z,3932
2017-01-03T09:06:40.584Z,4124
2017-01-03T09:07:50.861Z,4084
2017-01-03T09:09:01.107Z,3868
2017-01-03T09:10:10.995Z,3716
2017-01-03T09:11:21.271Z,3744
2017-01-03T09:12:31.506Z,3672
2017-01-03T09:13:41.804Z,3992
2017-01-03T09:14:52.077Z,4316
2017-01-03T09:16:02.307Z,4048
2017-01-03T09:17:12.634Z,3720
2017-01-03T09:18:22.500Z,3360
2017-01-03T09:19:32.767Z,3064
2017-01-03T09:20:43.177Z,3168
2017-01-03T09:21:53.479Z,3244
2017-01-03T09:23:03.875Z,3312
2017-01-03T09:24:14.125Z,3036
2017-01-03T09:25:24.392Z,2796
2017-01-03T09:26:34.668Z,2724
2017-01-03T09:27:44.513Z,2968
2017-01-03T09:28:54.361Z,3180
2017-01-03T09:30:04.659Z,3244
2017-01-03T09:31:14.500Z,3288
2017-01-03T09:32:24.749Z,3272
2017-01-03T09:33:34.998Z,3340
2017-01-03T09:34:45.307Z,3204
2017-01-03T09:35:55.558Z,3168
2017-01-03T09:37:05.826Z,3472
2017-01-03T09:38:15.659Z,3300
2017-01-03T09:39:25.948Z,3188
2017-01-03T09:40:36.278Z,2792
2017-01-03T09:41:46.615Z,3192
2017-01-03T09:42:56.911Z,3052
2017-01-03T09:44:07.174Z,3088
2017-01-03T09:45:17.044Z,3208
2017-01-03T09:46:27.368Z,3352
2017-01-03T09:47:37.231Z,3540
2017-01-03T09:48:46.689Z,3688
2017-01-03T09:49:56.928Z,3584
2017-01-03T09:51:07.187Z,3584
2017-01-03T09:52:17.451Z,3808
2017-01-03T09:53:27.718Z,3856
2017-01-03T09:54:37.149Z,3752
2017-01-03T09:55:47.461Z,3364
2017-01-03T09:56:57.834Z,3264
2017-01-03T09:58:08.080Z,3060
2017-01-03T09:59:17.909Z,3400
2017-01-03T10:00:28.192Z,3608
2017-01-03T10:01:37.628Z,3388
2017-01-03T10:02:47.518Z,2748
2017-01-03T10:03:57.768Z,3216
2017-01-03T10:05:08.120Z,3332
2017-01-03T10:06:18.026Z,3108
2017-01-03T10:07:28.297Z,3972
2017-01-03T10:08:38.550Z,4228
2017-01-03T10:09:48.905Z,4188
2017-01-03T10:10:59.140Z,4088
2017-01-03T10:12:09.390Z,3688
2017-01-03T10:13:19.633Z,4052
2017-01-03T10:14:29.885Z,4264
2017-01-03T10:15:40.130Z,4188
2017-01-03T10:16:50.486Z,4216
2017-01-03T10:18:00.722Z,4116
2017-01-03T10:19:10.593Z,4172
2017-01-03T10:20:20.426Z,4000
2017-01-03T10:21:30.278Z,4068
2017-01-03T10:22:40.538Z,4088
2017-01-03T10:23:50.826Z,4008
2017-01-03T10:25:01.058Z,3844
2017-01-03T10:26:10.924Z,3868
2017-01-03T10:27:21.188Z,3972
2017-01-03T10:28:31.421Z,3476
2017-01-03T10:29:41.701Z,3524
2017-01-03T10:30:52.048Z,3400
2017-01-03T10:32:02.359Z,3360
2017-01-03T10:33:12.199Z,3396
2017-01-03T10:34:22.067Z,3232
2017-01-03T10:35:32.337Z,3368
2017-01-03T10:36:42.577Z,3560
2017-01-03T10:37:52.900Z,3648
2017-01-03T10:39:03.142Z,4048
2017-01-03T10:40:13.430Z,4352
2017-01-03T10:41:23.710Z,4608
2017-01-03T10:42:33.555Z,5416
2017-01-03T10:43:42.993Z,5480
2017-01-03T10:44:53.230Z,5332
2017-01-03T10:46:03.070Z,5188
2017-01-03T10:47:12.906Z,4892
2017-01-03T10:48:23.230Z,4860
2017-01-03T10:49:33.622Z,4724
2017-01-03T10:50:43.907Z,4504
2017-01-03T10:51:54.150Z,4380
2017-01-03T10:53:03.590Z,4408
2017-01-03T10:54:13.540Z,4500
2017-01-03T10:55:23.780Z,4540
2017-01-03T10:56:34.160Z,4512
2017-01-03T10:57:44.504Z,4468
2017-01-03T10:58:54.412Z,4436
2017-01-03T11:00:04.258Z,4516
2017-01-03T11:01:14.153Z,4616
2017-01-03T11:02:24.390Z,4504
2017-01-03T11:03:33.825Z,4296
2017-01-03T11:04:44.059Z,4164
2017-01-03T11:05:54.305Z,4204
2017-01-03T11:07:04.639Z,4364
2017-01-03T11:08:14.990Z,4340
2017-01-03T11:09:25.346Z,4220
2017-01-03T11:10:35.631Z,4064
2017-01-03T11:11:45.908Z,4020
2017-01-03T11:12:56.168Z,4116
2017-01-03T11:14:06.415Z,3936
2017-01-03T11:15:16.805Z,3760
2017-01-03T11:16:27.113Z,4336
2017-01-03T11:17:37.377Z,4540
2017-01-03T11:18:47.615Z,4572
2017-01-03T11:19:57.493Z,4384
2017-01-03T11:21:07.311Z,4348
2017-01-03T11:22:17.686Z,4968
2017-01-03T11:23:27.958Z,5352
2017-01-03T11:24:37.945Z,5612
2017-01-03T11:25:48.195Z,5372
2017-01-03T11:26:58.425Z,5304
2017-01-03T11:28:08.655Z,5472
2017-01-03T11:29:19.015Z,5320
2017-01-03T11:30:29.285Z,6332
2017-01-03T11:31:39.126Z,6068
2017-01-03T11:32:49.519Z,6056
2017-01-03T11:33:59.790Z,5016
2017-01-03T11:35:10.028Z,5788
2017-01-03T11:36:20.313Z,5760
2017-01-03T11:37:30.186Z,5340
2017-01-03T11:38:40.193Z,5064
2017-01-03T11:39:50.040Z,5088
2017-01-03T11:41:00.493Z,4568
2017-01-03T11:42:10.800Z,4856
2017-01-03T11:43:20.712Z,4964
2017-01-03T11:44:30.547Z,4840
2017-01-03T11:45:40.801Z,5224
2017-01-03T11:46:51.097Z,5284
2017-01-03T11:48:01.379Z,5684
2017-01-03T11:49:11.625Z,5816
2017-01-03T11:50:21.900Z,6040
2017-01-03T11:51:32.144Z,5800
2017-01-03T11:52:42.011Z,5648
2017-01-03T11:53:52.013Z,4668
2017-01-03T11:55:02.316Z,5008
2017-01-03T11:56:12.771Z,4948
2017-01-03T11:57:23.047Z,5240
2017-01-03T11:58:33.306Z,5596
2017-01-03T11:59:43.683Z,5528
2017-01-03T12:00:53.999Z,5112
2017-01-03T12:02:04.244Z,5460
2017-01-03T12:03:14.493Z,5148
2017-01-03T12:04:24.322Z,5368
2017-01-03T12:05:34.564Z,5440
2017-01-03T12:06:44.906Z,5488
2017-01-03T12:07:55.157Z,5820
2017-01-03T12:09:05.468Z,6380
2017-01-03T12:10:15.738Z,6652
2017-01-03T12:11:26.060Z,6744
2017-01-03T12:12:36.378Z,6328
2017-01-03T12:13:46.636Z,5944
2017-01-03T12:14:56.502Z,5292
2017-01-03T12:16:06.791Z,4452
2017-01-03T12:17:17.080Z,4200
2017-01-03T12:18:26.509Z,4060
2017-01-03T12:19:36.380Z,3872
2017-01-03T12:20:45.834Z,4188
2017-01-03T12:21:56.127Z,4600
2017-01-03T12:23:05.963Z,5028
2017-01-03T12:24:16.232Z,5144
2017-01-03T12:25:26.585Z,5356
2017-01-03T12:26:36.845Z,5036
2017-01-03T12:27:46.858Z,4520
2017-01-03T12:28:57.110Z,4168
2017-01-03T12:30:07.339Z,3888
2017-01-03T12:31:17.590Z,3868
2017-01-03T12:32:27.858Z,3584
2017-01-03T12:33:38.262Z,3612
2017-01-03T12:34:48.132Z,3720
2017-01-03T12:35:58.002Z,3504
2017-01-03T12:37:08.269Z,3400
2017-01-03T12:38:17.739Z,3552
2017-01-03T12:39:27.628Z,3824
2017-01-03T12:40:38.008Z,4016
2017-01-03T12:41:47.468Z,3472
2017-01-03T12:42:57.747Z,4320
2017-01-03T12:44:07.662Z,3760
2017-01-03T12:45:17.516Z,3772
2017-01-03T12:46:27.404Z,3704
2017-01-03T12:47:37.676Z,3084
2017-01-03T12:48:47.520Z,2792
2017-01-03T12:49:57.844Z,2832
2017-01-03T12:51:08.098Z,3068
2017-01-03T12:52:17.580Z,3308
2017-01-03T12:53:27.832Z,2868
2017-01-03T12:54:38.092Z,2584
2017-01-03T12:55:48.336Z,2544
2017-01-03T12:56:58.169Z,2280
2017-01-03T12:58:08.004Z,2164
2017-01-03T12:59:18.278Z,2404
2017-01-03T13:00:28.518Z,2616
2017-01-03T13:01:38.797Z,2320
2017-01-03T13:02:49.365Z,2324
2017-01-03T13:03:59.230Z,2312
2017-01-03T13:05:09.482Z,2276
2017-01-03T13:06:19.313Z,2296
2017-01-03T13:07:29.594Z,2296
2017-01-03T13:08:39.887Z,2048
2017-01-03T13:09:50.159Z,2112
2017-01-03T13:11:00.416Z,1976
2017-01-03T13:12:10.658Z,1804
2017-01-03T13:13:21.012Z,1700
2017-01-03T13:14:31.267Z,1688
2017-01-03T13:15:41.497Z,1916
2017-01-03T13:16:51.328Z,1820
2017-01-03T13:18:01.582Z,1904
2017-01-03T13:19:11.807Z,1520
2017-01-03T13:20:22.067Z,1644
2017-01-03T13:21:32.482Z,1844
2017-01-03T13:22:42.320Z,1880
2017-01-03T13:23:52.691Z,1932
2017-01-03T13:25:02.578Z,1744
2017-01-03T13:26:12.882Z,2148
2017-01-03T13:27:23.191Z,2328
2017-01-03T13:28:33.504Z,2004
2017-01-03T13:29:43.792Z,2300
2017-01-03T13:30:54.072Z,1944
2017-01-03T13:32:03.914Z,1948
2017-01-03T13:33:13.806Z,1944
2017-01-03T13:34:24.041Z,1864
2017-01-03T13:35:33.962Z,1612
2017-01-03T13:36:43.819Z,1680
2017-01-03T13:37:53.691Z,1636
2017-01-03T13:39:03.304Z,1660
2017-01-03T13:40:13.550Z,1540
2017-01-03T13:41:23.786Z,1524
2017-01-03T13:42:34.009Z,1552
2017-01-03T13:43:43.487Z,1492
2017-01-03T13:44:53.839Z,1380
2017-01-03T13:46:03.732Z,1428
2017-01-03T13:47:13.972Z,1444
2017-01-03T13:48:23.497Z,1376
2017-01-03T13:49:33.776Z,1404
2017-01-03T13:50:44.076Z,1480
2017-01-03T13:51:54.475Z,1596
2017-01-03T13:53:04.324Z,1616
2017-01-03T13:54:14.187Z,1796
2017-01-03T13:55:24.435Z,1960
2017-01-03T13:56:34.278Z,1976
2017-01-03T13:57:44.597Z,2056
2017-01-03T13:58:54.945Z,2164
2017-01-03T14:00:04.808Z,2240
2017-01-03T14:01:15.074Z,2384
2017-01-03T14:02:24.964Z,2476
2017-01-03T14:03:35.296Z,2436
2017-01-03T14:04:45.567Z,2228
2017-01-03T14:05:55.846Z,2200
2017-01-03T14:07:06.093Z,2164
2017-01-03T14:08:16.321Z,2344
2017-01-03T14:09:26.646Z,2556
2017-01-03T14:10:36.965Z,2604
2017-01-03T14:11:47.240Z,2772
2017-01-03T14:12:57.119Z,2880
2017-01-03T14:14:07.435Z,2348
2017-01-03T14:15:17.762Z,2208
2017-01-03T14:16:28.011Z,1916
2017-01-03T14:17:38.249Z,1652
2017-01-03T14:18:48.086Z,1612
2017-01-03T14:19:58.351Z,1436
2017-01-03T14:21:08.620Z,1200
2017-01-03T14:22:18.853Z,1080
2017-01-03T14:23:28.758Z,1016
2017-01-03T14:24:39.015Z,1100
2017-01-03T14:25:49.266Z,1020
2017-01-03T14:26:59.548Z,940
2017-01-03T14:28:09.876Z,1048
2017-01-03T14:29:20.138Z,896
2017-01-03T14:30:30.411Z,912
2017-01-03T14:31:40.662Z,844
2017-01-03T14:32:50.503Z,684
2017-01-03T14:34:00.477Z,652
2017-01-03T14:35:10.367Z,512
2017-01-03T14:36:20.703Z,604
2017-01-03T14:37:31.066Z,508
2017-01-03T14:38:40.497Z,572
2017-01-03T14:39:50.811Z,536
2017-01-03T14:41:01.083Z,456
2017-01-03T14:42:10.904Z,444
2017-01-03T14:43:20.841Z,412
2017-01-03T14:44:31.117Z,308
2017-01-03T14:45:40.957Z,320
2017-01-03T14:46:50.845Z,320
2017-01-03T14:48:01.119Z,344
2017-01-03T14:49:11.395Z,300
2017-01-03T14:50:21.303Z,212
2017-01-03T14:51:31.600Z,216
2017-01-03T14:52:41.444Z,216
2017-01-03T14:53:51.692Z,172
2017-01-03T14:55:02.067Z,160
2017-01-03T14:56:12.537Z,172
2017-01-03T14:57:22.471Z,144
2017-01-03T14:58:32.797Z,128
2017-01-03T14:59:42.265Z,128
2017-01-03T15:00:52.556Z,128
2017-01-03T15:02:02.470Z,108
2017-01-03T15:03:12.410Z,128
2017-01-03T15:04:22.717Z,96
2017-01-03T15:05:32.771Z,120
2017-01-03T15:06:43.056Z,124
2017-01-03T15:07:53.434Z,88
2017-01-03T15:09:03.715Z,112
2017-01-03T15:10:13.551Z,92
2017-01-03T15:11:23.495Z,104
2017-01-03T15:12:33.800Z,80
2017-01-03T15:13:43.745Z,72
2017-01-03T15:14:53.660Z,68
2017-01-03T15:16:04.021Z,72
2017-01-03T15:17:14.085Z,64
2017-01-03T15:18:23.944Z,68
2017-01-03T15:19:34.093Z,60
2017-01-03T15:20:44.418Z,48
2017-01-03T15:21:54.362Z,48
2017-01-03T15:23:04.673Z,48
2017-01-03T15:24:14.988Z,44
2017-01-03T15:25:25.261Z,44
2017-01-03T15:26:34.330Z,32
2017-01-03T15:27:44.753Z,24
2017-01-03T15:28:55.251Z,20
2017-01-03T15:30:05.848Z,28
2017-01-03T15:31:16.332Z,24
2017-01-03T15:32:25.947Z,20
2017-01-03T15:33:36.473Z,16
2017-01-03T15:34:47.025Z,12
2017-01-03T15:35:57.558Z,12
2017-01-03T15:37:08.045Z,12
2017-01-03T15:38:18.478Z,12
2017-01-03T15:39:28.397Z,12
2017-01-03T15:40:39.075Z,8
2017-01-03T15:41:50.137Z,8
2017-01-03T15:43:00.629Z,8
2017-01-03T15:44:11.197Z,4
2017-01-03T15:45:22.015Z,4
2017-01-03T15:46:32.294Z,4
2017-01-03T15:47:42.375Z,0
2017-01-03T15:48:53.119Z,4
2017-01-03T15:50:03.262Z,0
2017-01-03T15:51:13.412Z,4
2017-01-03T15:52:23.893Z,0
2017-01-03T15:53:34.836Z,0
2017-01-03T15:54:44.781Z,0
2017-01-03T15:55:55.375Z,0
2017-01-03T15:57:05.988Z,0
2017-01-03T15:58:16.434Z,0
2017-01-03T15:59:27.181Z,0
2017-01-03T16:00:37.272Z,0
2017-01-03T16:01:47.897Z,0
2017-01-03T16:02:58.659Z,0
2017-01-03T16:04:09.739Z,0
2017-01-03T16:05:20.947Z,0
2017-01-03T16:06:31.052Z,0
2017-01-03T16:07:41.832Z,0
2017-01-03T16:08:52.793Z,0
2017-01-03T16:10:03.263Z,0
2017-01-03T16:11:14.037Z,0
2017-01-03T16:12:24.920Z,0
2017-01-03T16:13:35.371Z,0
2017-01-03T16:14:45.991Z,0
2017-01-03T16:15:56.958Z,0
2017-01-03T16:17:07.130Z,0
2017-01-03T16:18:17.955Z,0
2017-01-03T16:19:29.019Z,0
2017-01-03T16:20:39.754Z,0
2017-01-03T16:21:51.129Z,0
2017-01-03T16:23:02.404Z,0
2017-01-03T16:24:12.998Z,0
2017-01-03T16:25:24.063Z,0
2017-01-03T16:26:35.650Z,0